UKLU/UDJ METAR and TAF weather

Enter ICAO airport designator
Station Type Date Time Source
UKLU METAR 2020/08/11 15:00 UTC NOAA

UKLU 111500Z 32003MPS 290V030 9999 BKN040 30/17 Q1016 R10/090070 NOSIG


Station Type Date Time Source
UKLU Decoded METAR 2020/08/11 15:00 UTC NOAA

Uzhhorod, Ukraine (UKLU) 48-38-05N 022-15-53E
Aug 11, 2020 - 11:00 AM EDT / 2020.08.11 1500 UTC
Wind: from the NW (320 degrees) at 7 MPH (6 KT) (direction variable):0
Visibility: greater than 7 mile(s):0
Sky conditions: mostly cloudy
Temperature: 86 F (30 C)
Dew Point: 62 F (17 C)
Relative Humidity: 45%
Pressure (altimeter): 30.00 in. Hg (1016 hPa)
ob: UKLU 111500Z 32003MPS 290V030 9999 BKN040 30/17 Q1016 R10/090070 NOSIG
cycle: 15

Station Type Date Time Source
UKLU TAF 2019/04/25 06:24 UTC NOAA

TAF TAF UKLU 250504Z 2506/2615 12005MPS 9999 NSC
TEMPO 2506/2512 15007G12MPS SCT040

Example: see airport list